Dime Box, TX (77853)

7:14 AM CDT on August 29, 2014 (GMT -0500)
Giddings | Change Station
CLOSE
Current Station
Airport
Location: Giddings,
Elevation: 486 ft
Nearby Weather Stations

Elev 486 ft 30.17 °N, 96.98 °W | Updated 19 minutes ago

Overcast
Overcast
76 °F
Feels Like 76 °F
N
5
Wind Variable Wind from East

Today
High -- | Low -- °F
--% Chance of Precip.
Yesterday
High -- | Low -- °F
Precip. -- in
7:03 AM 7:53 PM
Waxing Crescent, 14% visible
Pressure 29.93 in
Visibility 10.0 miles
Clouds Overcast 11000 ft
Dew Point 72 °F
Humidity 90%
Rainfall 0.00 in
Snow Depth Not available.
UV 0 out of 12
Pollen 7.30 out of 12
Air Quality Not available.
Flu Activity Not available.
METAR KGYB 291155Z AUTO 08004KT 10SM OVC110 24/23 A2993 RMK AO2 T02420225 10251 20231

More Conditions Fewer Conditions

Pressure 29.93 in
Visibility 10.0 miles
Clouds Overcast 11000 ft
Dew Point 72 °F
Humidity 90%
Rainfall 0.00 in
Snow Depth Not available.
UV 0 out of 12
Pollen 7.30 out of 12
Air Quality Not available.
Flu Activity Not available.
METAR KGYB 291155Z AUTO 08004KT 10SM OVC110 24/23 A2993 RMK AO2 T02420225 10251 20231

More Conditions Fewer Conditions

Nowcast | as of 5:40 am CDT on August 29, 2014

Through late this morning...scattered showers and thunderstorms over the coastal Bend will expand slowly northward across the coastal prairies. Through 9 am CDT...isolated showers and thunderstorms will reach as far north as a Campbellton to Gonzales to Lexington line. Rainfall amounts will be mainly less than 1/10 inch...but isolated higher amounts up to 1/2 inch are possible. Rain chances will increase along the I-35 corridor toward midday.

×

10-Day Weather Forecast

Almanac

Astronomy

Aug. 29, 2014 Rise Set
Actual Time 7:03 AM CDT 7:53 PM CDT
Civil Twilight 6:38 AM CDT 8:18 PM CDT
Nautical Twilight 6:09 AM CDT 8:47 PM CDT
Astronomical Twilight 5:40 AM CDT 9:16 PM CDT
Moon 10:34 AM CDT 10:13 PM CDT
Length of Visible Light 13h 39m
Length of Day
12h 50m
Tomorrow will be 1m 44s shorter.
Waxing Crescent, 14% of the Moon is Illuminated
Today
Waxing Crescent
Sep 2
First Quarter
Sep 8
Full
Sep 15
Last Quarter
Sep 24
New

Today's Extremes

State Highs State Lows

Community

WunderPhotos

Upload Photos

1,748,217 photos uploaded!

Nearby

Snow Depth

Station Depth Elevation
No new snow has been reported.

Earthquake Activity

City Distance Mag. Time & Date
No recent earthquake activity has been reported nearby.
Minimum magnitude displayed is 2.5.

Coastal Water Temperatures

Place Temperature
No Stations Reporting

Nearby Weather Stations